sensor_id;sensor_type;location;lat;lon;timestamp;pressure;altitude;pressure_sealevel;temperature;humidity
70745;BME280;59284;31.390;34.904;2023-01-23T00:00:43;95238.03;;;19.14;100.00
70745;BME280;59284;31.390;34.904;2023-01-23T00:03:11;95229.91;;;19.19;100.00
70745;BME280;59284;31.390;34.904;2023-01-23T00:05:37;95230.84;;;18.99;100.00
70745;BME280;59284;31.390;34.904;2023-01-23T00:08:03;95227.97;;;18.79;100.00
70745;BME280;59284;31.390;34.904;2023-01-23T00:10:28;95223.16;;;18.93;100.00
70745;BME280;59284;31.390;34.904;2023-01-23T00:12:54;95221.53;;;18.89;100.00
70745;BME280;59284;31.390;34.904;2023-01-23T00:15:22;95225.22;;;18.88;100.00
70745;BME280;59284;31.390;34.904;2023-01-23T00:17:47;95226.16;;;18.35;100.00
70745;BME280;59284;31.390;34.904;2023-01-23T00:20:13;95236.97;;;18.90;100.00
70745;BME280;59284;31.390;34.904;2023-01-23T00:22:39;95238.38;;;18.64;100.00
70745;BME280;59284;31.390;34.904;2023-01-23T00:25:05;95245.50;;;18.75;100.00
70745;BME280;59284;31.390;34.904;2023-01-23T00:27:31;95238.81;;;18.54;100.00
70745;BME280;59284;31.390;34.904;2023-01-23T00:29:57;95236.84;;;18.06;100.00
70745;BME280;59284;31.390;34.904;2023-01-23T00:32:23;95232.28;;;17.62;100.00
70745;BME280;59284;31.390;34.904;2023-01-23T00:34:50;95242.22;;;18.09;100.00
70745;BME280;59284;31.390;34.904;2023-01-23T00:37:16;95257.53;;;17.87;100.00
70745;BME280;59284;31.390;34.904;2023-01-23T00:39:42;95260.09;;;17.95;100.00
70745;BME280;59284;31.390;34.904;2023-01-23T00:42:10;95259.50;;;18.10;100.00
70745;BME280;59284;31.390;34.904;2023-01-23T00:44:36;95262.94;;;18.23;100.00
70745;BME280;59284;31.390;34.904;2023-01-23T00:47:03;95259.94;;;18.45;100.00
70745;BME280;59284;31.390;34.904;2023-01-23T00:49:33;95268.44;;;17.97;100.00
70745;BME280;59284;31.390;34.904;2023-01-23T00:51:59;95264.44;;;18.24;100.00
70745;BME280;59284;31.390;34.904;2023-01-23T00:54:24;95263.34;;;18.13;100.00
70745;BME280;59284;31.390;34.904;2023-01-23T00:56:50;95261.97;;;18.40;100.00
70745;BME280;59284;31.390;34.904;2023-01-23T00:59:16;95271.44;;;18.53;100.00
70745;BME280;59284;31.390;34.904;2023-01-23T01:01:42;95284.09;;;18.06;100.00
70745;BME280;59284;31.390;34.904;2023-01-23T01:04:08;95276.19;;;18.39;100.00
70745;BME280;59284;31.390;34.904;2023-01-23T01:06:35;95285.34;;;18.53;100.00
70745;BME280;59284;31.390;34.904;2023-01-23T01:09:03;95278.06;;;18.38;100.00
70745;BME280;59284;31.390;34.904;2023-01-23T01:11:29;95287.81;;;17.64;100.00
70745;BME280;59284;31.390;34.904;2023-01-23T01:13:55;95285.81;;;17.11;100.00
70745;BME280;59284;31.390;34.904;2023-01-23T01:16:21;95285.13;;;17.31;100.00
70745;BME280;59284;31.390;34.904;2023-01-23T01:18:49;95281.31;;;18.23;100.00
70745;BME280;59284;31.390;34.904;2023-01-23T01:21:16;95275.50;;;19.23;100.00
70745;BME280;59284;31.390;34.904;2023-01-23T01:23:42;95275.75;;;18.69;100.00
70745;BME280;59284;31.390;34.904;2023-01-23T01:26:08;95280.00;;;17.96;100.00
70745;BME280;59284;31.390;34.904;2023-01-23T01:28:35;95276.66;;;18.08;100.00
70745;BME280;59284;31.390;34.904;2023-01-23T01:31:08;95277.28;;;17.93;100.00
70745;BME280;59284;31.390;34.904;2023-01-23T01:33:36;95272.44;;;18.48;100.00
70745;BME280;59284;31.390;34.904;2023-01-23T01:36:06;95280.47;;;17.57;100.00
70745;BME280;59284;31.390;34.904;2023-01-23T01:38:32;95282.91;;;17.62;100.00
70745;BME280;59284;31.390;34.904;2023-01-23T01:40:57;95285.66;;;17.86;100.00
70745;BME280;59284;31.390;34.904;2023-01-23T01:43:25;95281.25;;;17.78;100.00
70745;BME280;59284;31.390;34.904;2023-01-23T01:48:45;95275.47;;;17.85;100.00
70745;BME280;59284;31.390;34.904;2023-01-23T01:56:24;95266.63;;;17.57;100.00
70745;BME280;59284;31.390;34.904;2023-01-23T01:58:52;95273.25;;;17.25;100.00
70745;BME280;59284;31.390;34.904;2023-01-23T02:01:18;95273.94;;;17.13;100.00
70745;BME280;59284;31.390;34.904;2023-01-23T02:03:44;95267.50;;;17.31;100.00
70745;BME280;59284;31.390;34.904;2023-01-23T02:06:11;95268.88;;;17.37;100.00
70745;BME280;59284;31.390;34.904;2023-01-23T02:11:22;95270.78;;;17.49;100.00
70745;BME280;59284;31.390;34.904;2023-01-23T02:13:48;95274.78;;;17.76;100.00
70745;BME280;59284;31.390;34.904;2023-01-23T02:16:18;95277.41;;;17.55;100.00
70745;BME280;59284;31.390;34.904;2023-01-23T02:18:47;95268.38;;;17.65;100.00
70745;BME280;59284;31.390;34.904;2023-01-23T02:21:16;95272.31;;;17.59;100.00
70745;BME280;59284;31.390;34.904;2023-01-23T02:26:43;95274.88;;;18.00;100.00
70745;BME280;59284;31.390;34.904;2023-01-23T02:29:10;95270.47;;;17.92;100.00
70745;BME280;59284;31.390;34.904;2023-01-23T02:31:36;95270.03;;;17.90;100.00
70745;BME280;59284;31.390;34.904;2023-01-23T02:34:03;95276.38;;;17.68;100.00
70745;BME280;59284;31.390;34.904;2023-01-23T02:36:31;95275.41;;;17.93;100.00
70745;BME280;59284;31.390;34.904;2023-01-23T02:39:02;95275.72;;;18.24;100.00
70745;BME280;59284;31.390;34.904;2023-01-23T02:41:41;95281.19;;;18.76;100.00
70745;BME280;59284;31.390;34.904;2023-01-23T02:44:19;95278.16;;;18.86;100.00
70745;BME280;59284;31.390;34.904;2023-01-23T02:46:49;95273.31;;;18.76;100.00
70745;BME280;59284;31.390;34.904;2023-01-23T02:49:15;95273.25;;;18.40;100.00
70745;BME280;59284;31.390;34.904;2023-01-23T02:51:41;95279.66;;;18.63;100.00
70745;BME280;59284;31.390;34.904;2023-01-23T02:54:07;95275.38;;;18.59;100.00
70745;BME280;59284;31.390;34.904;2023-01-23T02:56:33;95285.69;;;18.64;100.00
70745;BME280;59284;31.390;34.904;2023-01-23T02:58:59;95281.22;;;18.64;100.00
70745;BME280;59284;31.390;34.904;2023-01-23T03:01:44;95281.66;;;18.90;100.00
70745;BME280;59284;31.390;34.904;2023-01-23T03:04:09;95284.25;;;18.54;100.00
70745;BME280;59284;31.390;34.904;2023-01-23T03:06:36;95281.25;;;18.44;100.00
70745;BME280;59284;31.390;34.904;2023-01-23T03:09:08;95288.81;;;18.12;100.00
70745;BME280;59284;31.390;34.904;2023-01-23T03:11:35;95285.59;;;18.40;100.00
70745;BME280;59284;31.390;34.904;2023-01-23T03:14:01;95293.28;;;18.12;100.00
70745;BME280;59284;31.390;34.904;2023-01-23T03:16:27;95295.72;;;18.17;100.00
70745;BME280;59284;31.390;34.904;2023-01-23T03:18:53;95283.25;;;18.47;100.00
70745;BME280;59284;31.390;34.904;2023-01-23T03:21:19;95280.88;;;18.66;100.00
70745;BME280;59284;31.390;34.904;2023-01-23T03:23:45;95279.69;;;18.75;100.00
70745;BME280;59284;31.390;34.904;2023-01-23T03:26:12;95277.72;;;19.45;100.00
70745;BME280;59284;31.390;34.904;2023-01-23T03:28:40;95282.78;;;19.02;100.00
70745;BME280;59284;31.390;34.904;2023-01-23T03:31:24;95281.22;;;18.88;100.00
70745;BME280;59284;31.390;34.904;2023-01-23T03:33:50;95288.34;;;19.00;100.00
70745;BME280;59284;31.390;34.904;2023-01-23T03:36:17;95295.00;;;18.73;100.00
70745;BME280;59284;31.390;34.904;2023-01-23T03:38:43;95293.72;;;18.91;100.00
70745;BME280;59284;31.390;34.904;2023-01-23T03:41:28;95290.88;;;18.97;100.00
70745;BME280;59284;31.390;34.904;2023-01-23T03:43:55;95288.44;;;19.16;100.00
70745;BME280;59284;31.390;34.904;2023-01-23T03:46:23;95291.63;;;19.21;100.00
70745;BME280;59284;31.390;34.904;2023-01-23T03:48:49;95301.16;;;19.14;100.00
70745;BME280;59284;31.390;34.904;2023-01-23T03:51:14;95299.47;;;18.61;100.00
70745;BME280;59284;31.390;34.904;2023-01-23T03:53:40;95296.94;;;18.52;100.00
70745;BME280;59284;31.390;34.904;2023-01-23T03:56:06;95300.19;;;18.37;100.00
70745;BME280;59284;31.390;34.904;2023-01-23T03:58:31;95298.44;;;18.41;100.00
70745;BME280;59284;31.390;34.904;2023-01-23T04:00:57;95290.38;;;18.46;100.00
70745;BME280;59284;31.390;34.904;2023-01-23T04:03:23;95290.75;;;18.69;100.00
70745;BME280;59284;31.390;34.904;2023-01-23T04:05:54;95284.88;;;18.51;100.00
70745;BME280;59284;31.390;34.904;2023-01-23T04:08:21;95287.69;;;19.15;100.00
70745;BME280;59284;31.390;34.904;2023-01-23T04:10:47;95288.44;;;18.91;100.00
70745;BME280;59284;31.390;34.904;2023-01-23T04:13:14;95286.44;;;18.52;100.00
70745;BME280;59284;31.390;34.904;2023-01-23T04:15:39;95286.47;;;18.76;100.00
70745;BME280;59284;31.390;34.904;2023-01-23T04:18:05;95300.28;;;18.08;100.00
70745;BME280;59284;31.390;34.904;2023-01-23T04:20:32;95299.44;;;18.16;100.00
70745;BME280;59284;31.390;34.904;2023-01-23T04:22:58;95287.84;;;18.50;100.00
70745;BME280;59284;31.390;34.904;2023-01-23T04:25:23;95290.72;;;18.57;100.00
70745;BME280;59284;31.390;34.904;2023-01-23T04:27:49;95292.31;;;18.37;100.00
70745;BME280;59284;31.390;34.904;2023-01-23T04:30:15;95284.03;;;18.59;100.00
70745;BME280;59284;31.390;34.904;2023-01-23T04:32:41;95288.34;;;18.76;100.00
70745;BME280;59284;31.390;34.904;2023-01-23T04:35:07;95291.28;;;18.86;100.00
70745;BME280;59284;31.390;34.904;2023-01-23T04:37:33;95296.44;;;18.71;100.00
70745;BME280;59284;31.390;34.904;2023-01-23T04:39:59;95296.25;;;18.43;100.00
70745;BME280;59284;31.390;34.904;2023-01-23T04:42:24;95294.34;;;18.32;100.00
70745;BME280;59284;31.390;34.904;2023-01-23T04:44:50;95300.53;;;18.15;100.00
70745;BME280;59284;31.390;34.904;2023-01-23T04:47:16;95304.69;;;18.16;100.00
70745;BME280;59284;31.390;34.904;2023-01-23T04:49:42;95312.81;;;18.23;100.00
70745;BME280;59284;31.390;34.904;2023-01-23T04:52:08;95310.25;;;18.02;100.00
70745;BME280;59284;31.390;34.904;2023-01-23T04:54:33;95312.50;;;18.24;100.00
70745;BME280;59284;31.390;34.904;2023-01-23T04:56:59;95310.44;;;18.30;100.00
70745;BME280;59284;31.390;34.904;2023-01-23T04:59:25;95309.00;;;18.20;100.00
70745;BME280;59284;31.390;34.904;2023-01-23T05:01:50;95313.94;;;18.55;100.00
70745;BME280;59284;31.390;34.904;2023-01-23T05:04:16;95309.78;;;18.66;100.00
70745;BME280;59284;31.390;34.904;2023-01-23T05:06:42;95311.66;;;18.45;100.00
70745;BME280;59284;31.390;34.904;2023-01-23T05:09:07;95314.47;;;18.60;100.00
70745;BME280;59284;31.390;34.904;2023-01-23T05:11:33;95319.84;;;18.64;100.00
70745;BME280;59284;31.390;34.904;2023-01-23T05:13:59;95320.09;;;18.71;100.00
70745;BME280;59284;31.390;34.904;2023-01-23T05:16:24;95324.81;;;19.26;100.00
70745;BME280;59284;31.390;34.904;2023-01-23T05:18:50;95321.06;;;18.66;100.00
70745;BME280;59284;31.390;34.904;2023-01-23T05:21:15;95328.97;;;18.90;100.00
70745;BME280;59284;31.390;34.904;2023-01-23T05:23:41;95330.06;;;18.77;100.00
70745;BME280;59284;31.390;34.904;2023-01-23T05:26:07;95332.91;;;19.09;100.00
70745;BME280;59284;31.390;34.904;2023-01-23T05:28:32;95337.88;;;19.10;100.00
70745;BME280;59284;31.390;34.904;2023-01-23T05:30:58;95331.53;;;18.99;100.00
70745;BME280;59284;31.390;34.904;2023-01-23T05:33:24;95335.47;;;19.41;100.00
70745;BME280;59284;31.390;34.904;2023-01-23T05:35:49;95346.69;;;19.90;100.00
70745;BME280;59284;31.390;34.904;2023-01-23T05:38:16;95336.75;;;19.72;100.00
70745;BME280;59284;31.390;34.904;2023-01-23T05:40:42;95342.97;;;19.91;100.00
70745;BME280;59284;31.390;34.904;2023-01-23T05:43:12;95338.72;;;20.42;100.00
70745;BME280;59284;31.390;34.904;2023-01-23T05:45:38;95352.97;;;19.74;100.00
70745;BME280;59284;31.390;34.904;2023-01-23T05:48:04;95354.78;;;19.97;100.00
70745;BME280;59284;31.390;34.904;2023-01-23T05:50:29;95351.63;;;20.75;100.00
70745;BME280;59284;31.390;34.904;2023-01-23T05:52:55;95363.16;;;20.55;100.00
70745;BME280;59284;31.390;34.904;2023-01-23T05:55:21;95372.41;;;20.92;100.00
70745;BME280;59284;31.390;34.904;2023-01-23T05:57:46;95373.94;;;20.93;100.00
70745;BME280;59284;31.390;34.904;2023-01-23T06:00:13;95378.53;;;20.96;100.00
70745;BME280;59284;31.390;34.904;2023-01-23T06:02:39;95377.22;;;20.74;100.00
70745;BME280;59284;31.390;34.904;2023-01-23T06:05:05;95383.03;;;20.80;100.00
70745;BME280;59284;31.390;34.904;2023-01-23T06:07:31;95382.28;;;20.95;100.00
70745;BME280;59284;31.390;34.904;2023-01-23T06:09:57;95390.41;;;21.99;100.00
70745;BME280;59284;31.390;34.904;2023-01-23T06:12:22;95395.19;;;20.41;100.00
70745;BME280;59284;31.390;34.904;2023-01-23T06:14:48;95400.53;;;20.05;100.00
70745;BME280;59284;31.390;34.904;2023-01-23T06:17:14;95402.13;;;20.61;100.00
70745;BME280;59284;31.390;34.904;2023-01-23T06:19:40;95396.09;;;21.51;100.00
70745;BME280;59284;31.390;34.904;2023-01-23T06:22:05;95401.16;;;21.25;100.00
70745;BME280;59284;31.390;34.904;2023-01-23T06:24:31;95410.91;;;21.87;100.00
70745;BME280;59284;31.390;34.904;2023-01-23T06:26:57;95409.44;;;21.74;100.00
70745;BME280;59284;31.390;34.904;2023-01-23T06:29:23;95422.66;;;21.11;100.00
70745;BME280;59284;31.390;34.904;2023-01-23T06:31:49;95424.00;;;20.77;100.00
70745;BME280;59284;31.390;34.904;2023-01-23T06:34:15;95426.19;;;21.97;100.00
70745;BME280;59284;31.390;34.904;2023-01-23T06:36:41;95424.16;;;21.75;100.00
70745;BME280;59284;31.390;34.904;2023-01-23T06:39:07;95433.59;;;22.07;100.00
70745;BME280;59284;31.390;34.904;2023-01-23T06:41:36;95423.44;;;22.63;100.00
70745;BME280;59284;31.390;34.904;2023-01-23T06:44:02;95416.66;;;22.84;100.00
70745;BME280;59284;31.390;34.904;2023-01-23T06:46:27;95418.81;;;23.21;100.00
70745;BME280;59284;31.390;34.904;2023-01-23T06:48:53;95424.13;;;22.79;100.00
70745;BME280;59284;31.390;34.904;2023-01-23T06:51:19;95420.81;;;23.50;100.00
70745;BME280;59284;31.390;34.904;2023-01-23T06:53:45;95423.84;;;24.01;100.00
70745;BME280;59284;31.390;34.904;2023-01-23T06:56:13;95434.31;;;22.99;100.00
70745;BME280;59284;31.390;34.904;2023-01-23T06:58:42;95436.03;;;23.34;100.00
70745;BME280;59284;31.390;34.904;2023-01-23T07:01:13;95427.25;;;23.75;100.00
70745;BME280;59284;31.390;34.904;2023-01-23T07:03:43;95433.94;;;23.65;100.00
70745;BME280;59284;31.390;34.904;2023-01-23T07:06:13;95428.16;;;24.38;100.00
70745;BME280;59284;31.390;34.904;2023-01-23T07:08:40;95430.50;;;23.65;100.00
70745;BME280;59284;31.390;34.904;2023-01-23T07:11:06;95437.41;;;23.47;100.00
70745;BME280;59284;31.390;34.904;2023-01-23T07:13:31;95438.19;;;23.47;100.00
70745;BME280;59284;31.390;34.904;2023-01-23T07:15:57;95430.16;;;24.78;100.00
70745;BME280;59284;31.390;34.904;2023-01-23T07:18:23;95429.91;;;24.90;100.00
70745;BME280;59284;31.390;34.904;2023-01-23T07:20:52;95427.09;;;25.53;100.00
70745;BME280;59284;31.390;34.904;2023-01-23T07:23:18;95443.63;;;24.66;100.00
70745;BME280;59284;31.390;34.904;2023-01-23T07:25:44;95438.06;;;23.89;100.00
70745;BME280;59284;31.390;34.904;2023-01-23T07:28:10;95438.66;;;24.31;100.00
70745;BME280;59284;31.390;34.904;2023-01-23T07:30:35;95439.47;;;24.06;100.00
70745;BME280;59284;31.390;34.904;2023-01-23T07:33:01;95442.88;;;23.80;100.00
70745;BME280;59284;31.390;34.904;2023-01-23T07:35:27;95452.59;;;23.50;100.00
70745;BME280;59284;31.390;34.904;2023-01-23T07:37:52;95445.00;;;23.71;100.00
70745;BME280;59284;31.390;34.904;2023-01-23T07:40:18;95450.75;;;23.09;100.00
70745;BME280;59284;31.390;34.904;2023-01-23T07:42:44;95452.84;;;23.41;100.00
70745;BME280;59284;31.390;34.904;2023-01-23T07:45:11;95452.28;;;24.30;100.00
70745;BME280;59284;31.390;34.904;2023-01-23T07:47:37;95442.34;;;23.71;100.00
70745;BME280;59284;31.390;34.904;2023-01-23T07:50:08;95448.38;;;23.94;100.00
70745;BME280;59284;31.390;34.904;2023-01-23T07:52:35;95458.47;;;23.40;100.00
70745;BME280;59284;31.390;34.904;2023-01-23T07:55:00;95453.38;;;23.77;100.00
70745;BME280;59284;31.390;34.904;2023-01-23T07:57:26;95453.16;;;23.85;100.00
70745;BME280;59284;31.390;34.904;2023-01-23T07:59:52;95446.97;;;24.26;100.00
70745;BME280;59284;31.390;34.904;2023-01-23T08:02:17;95441.97;;;25.61;100.00
70745;BME280;59284;31.390;34.904;2023-01-23T08:04:43;95452.34;;;24.33;100.00
70745;BME280;59284;31.390;34.904;2023-01-23T08:07:09;95458.16;;;24.42;100.00
70745;BME280;59284;31.390;34.904;2023-01-23T08:09:34;95454.22;;;25.76;100.00
70745;BME280;59284;31.390;34.904;2023-01-23T08:12:00;95447.88;;;25.04;100.00
70745;BME280;59284;31.390;34.904;2023-01-23T08:14:26;95451.56;;;25.76;100.00
70745;BME280;59284;31.390;34.904;2023-01-23T08:16:51;95438.63;;;29.08;100.00
70745;BME280;59284;31.390;34.904;2023-01-23T08:19:18;95418.16;;;29.94;100.00
70745;BME280;59284;31.390;34.904;2023-01-23T08:21:44;95426.94;;;30.69;100.00
70745;BME280;59284;31.390;34.904;2023-01-23T08:24:12;95430.00;;;30.97;100.00
70745;BME280;59284;31.390;34.904;2023-01-23T08:26:38;95428.47;;;31.76;100.00
70745;BME280;59284;31.390;34.904;2023-01-23T08:29:04;95424.69;;;32.17;100.00
70745;BME280;59284;31.390;34.904;2023-01-23T08:31:30;95426.84;;;30.42;100.00
70745;BME280;59284;31.390;34.904;2023-01-23T08:33:56;95422.81;;;32.56;100.00
70745;BME280;59284;31.390;34.904;2023-01-23T08:36:22;95414.22;;;34.71;100.00
70745;BME280;59284;31.390;34.904;2023-01-23T08:38:47;95415.16;;;31.46;100.00
70745;BME280;59284;31.390;34.904;2023-01-23T08:41:13;95420.56;;;30.22;100.00
70745;BME280;59284;31.390;34.904;2023-01-23T08:43:39;95397.47;;;33.45;100.00
70745;BME280;59284;31.390;34.904;2023-01-23T08:46:09;95398.41;;;32.87;100.00
70745;BME280;59284;31.390;34.904;2023-01-23T08:48:35;95402.16;;;31.45;100.00
70745;BME280;59284;31.390;34.904;2023-01-23T08:51:14;95392.06;;;31.75;100.00
70745;BME280;59284;31.390;34.904;2023-01-23T08:53:40;95395.47;;;33.65;100.00
70745;BME280;59284;31.390;34.904;2023-01-23T08:56:12;95392.22;;;31.88;100.00
70745;BME280;59284;31.390;34.904;2023-01-23T08:58:37;95380.09;;;32.98;100.00
70745;BME280;59284;31.390;34.904;2023-01-23T09:01:03;95385.41;;;32.66;100.00
70745;BME280;59284;31.390;34.904;2023-01-23T09:03:29;95364.69;;;35.06;100.00
70745;BME280;59284;31.390;34.904;2023-01-23T09:05:59;95380.53;;;32.96;100.00
70745;BME280;59284;31.390;34.904;2023-01-23T09:08:25;95371.25;;;33.17;100.00
70745;BME280;59284;31.390;34.904;2023-01-23T09:10:50;95381.00;;;32.16;100.00
70745;BME280;59284;31.390;34.904;2023-01-23T09:13:16;95385.34;;;27.37;100.00
70745;BME280;59284;31.390;34.904;2023-01-23T09:15:44;95370.13;;;32.04;100.00
70745;BME280;59284;31.390;34.904;2023-01-23T09:18:10;95360.41;;;33.98;100.00
70745;BME280;59284;31.390;34.904;2023-01-23T09:20:37;95354.59;;;33.99;100.00
70745;BME280;59284;31.390;34.904;2023-01-23T09:23:03;95351.91;;;35.79;100.00
70745;BME280;59284;31.390;34.904;2023-01-23T09:25:29;95352.34;;;33.98;100.00
70745;BME280;59284;31.390;34.904;2023-01-23T09:27:56;95349.75;;;34.35;100.00
70745;BME280;59284;31.390;34.904;2023-01-23T09:30:21;95364.53;;;32.73;100.00
70745;BME280;59284;31.390;34.904;2023-01-23T09:32:47;95369.41;;;31.07;100.00
70745;BME280;59284;31.390;34.904;2023-01-23T09:35:12;95338.81;;;33.56;100.00
70745;BME280;59284;31.390;34.904;2023-01-23T09:37:38;95355.66;;;30.75;100.00
70745;BME280;59284;31.390;34.904;2023-01-23T09:40:23;95341.03;;;34.85;100.00
70745;BME280;59284;31.390;34.904;2023-01-23T09:42:50;95342.53;;;35.11;100.00
70745;BME280;59284;31.390;34.904;2023-01-23T09:45:19;95336.34;;;35.83;100.00
70745;BME280;59284;31.390;34.904;2023-01-23T09:48:09;95331.75;;;33.91;100.00
70745;BME280;59284;31.390;34.904;2023-01-23T09:50:52;95326.88;;;36.22;100.00
70745;BME280;59284;31.390;34.904;2023-01-23T09:53:22;95320.09;;;34.89;100.00
70745;BME280;59284;31.390;34.904;2023-01-23T09:55:52;95312.72;;;36.61;100.00
70745;BME280;59284;31.390;34.904;2023-01-23T09:58:29;95302.75;;;36.89;100.00
70745;BME280;59284;31.390;34.904;2023-01-23T10:00:59;95301.69;;;37.35;100.00
70745;BME280;59284;31.390;34.904;2023-01-23T10:03:28;95291.84;;;36.61;100.00
70745;BME280;59284;31.390;34.904;2023-01-23T10:06:21;95307.69;;;34.54;100.00
70745;BME280;59284;31.390;34.904;2023-01-23T10:11:25;95297.06;;;36.25;100.00
70745;BME280;59284;31.390;34.904;2023-01-23T10:14:18;95287.31;;;36.28;100.00
70745;BME280;59284;31.390;34.904;2023-01-23T10:17:11;95287.53;;;34.46;100.00
70745;BME280;59284;31.390;34.904;2023-01-23T10:22:31;95273.75;;;35.75;100.00
70745;BME280;59284;31.390;34.904;2023-01-23T10:25:09;95274.25;;;35.61;100.00
70745;BME280;59284;31.390;34.904;2023-01-23T10:27:44;95271.88;;;36.07;100.00
70745;BME280;59284;31.390;34.904;2023-01-23T10:32:47;95276.47;;;35.75;100.00
70745;BME280;59284;31.390;34.904;2023-01-23T10:35:17;95268.63;;;34.21;100.00
70745;BME280;59284;31.390;34.904;2023-01-23T10:37:49;95267.03;;;35.11;100.00
70745;BME280;59284;31.390;34.904;2023-01-23T10:40:19;95261.84;;;34.29;100.00
70745;BME280;59284;31.390;34.904;2023-01-23T10:43:14;95260.69;;;35.52;100.00
70745;BME280;59284;31.390;34.904;2023-01-23T10:45:41;95247.88;;;36.70;100.00
70745;BME280;59284;31.390;34.904;2023-01-23T10:50:58;95269.44;;;34.59;100.00
70745;BME280;59284;31.390;34.904;2023-01-23T10:53:24;95256.63;;;36.83;100.00
70745;BME280;59284;31.390;34.904;2023-01-23T10:55:52;95263.06;;;33.58;100.00
70745;BME280;59284;31.390;34.904;2023-01-23T10:58:38;95252.22;;;35.63;100.00
70745;BME280;59284;31.390;34.904;2023-01-23T11:01:06;95262.75;;;34.64;100.00
70745;BME280;59284;31.390;34.904;2023-01-23T11:03:48;95242.66;;;34.14;100.00
70745;BME280;59284;31.390;34.904;2023-01-23T11:06:16;95234.50;;;36.67;100.00
70745;BME280;59284;31.390;34.904;2023-01-23T11:08:57;95229.97;;;37.67;100.00
70745;BME280;59284;31.390;34.904;2023-01-23T11:11:27;95230.50;;;36.89;100.00
70745;BME280;59284;31.390;34.904;2023-01-23T11:14:10;95238.03;;;38.21;100.00
70745;BME280;59284;31.390;34.904;2023-01-23T11:16:36;95222.91;;;40.68;100.00
70745;BME280;59284;31.390;34.904;2023-01-23T11:21:34;95233.28;;;37.80;100.00
70745;BME280;59284;31.390;34.904;2023-01-23T11:24:09;95228.00;;;39.11;100.00
70745;BME280;59284;31.390;34.904;2023-01-23T11:26:40;95230.47;;;35.10;100.00
70745;BME280;59284;31.390;34.904;2023-01-23T11:32:16;95224.03;;;38.23;100.00
70745;BME280;59284;31.390;34.904;2023-01-23T11:34:49;95250.78;;;31.26;100.00
70745;BME280;59284;31.390;34.904;2023-01-23T11:37:21;95248.28;;;29.78;100.00
70745;BME280;59284;31.390;34.904;2023-01-23T11:39:53;95251.06;;;28.24;100.00
70745;BME280;59284;31.390;34.904;2023-01-23T11:42:23;95242.41;;;29.12;100.00
70745;BME280;59284;31.390;34.904;2023-01-23T11:44:51;95240.63;;;29.80;100.00
70745;BME280;59284;31.390;34.904;2023-01-23T11:50:14;95244.28;;;29.94;100.00
70745;BME280;59284;31.390;34.904;2023-01-23T11:52:54;95238.91;;;29.26;100.00
70745;BME280;59284;31.390;34.904;2023-01-23T12:01:29;95235.13;;;32.58;100.00
70745;BME280;59284;31.390;34.904;2023-01-23T12:21:03;95229.03;;;35.53;100.00
70745;BME280;59284;31.390;34.904;2023-01-23T12:23:35;95227.66;;;35.91;100.00
70745;BME280;59284;31.390;34.904;2023-01-23T12:26:18;95230.63;;;35.84;100.00
70745;BME280;59284;31.390;34.904;2023-01-23T12:43:22;95234.34;;;33.22;100.00
70745;BME280;59284;31.390;34.904;2023-01-23T12:46:04;95228.22;;;34.33;100.00
70745;BME280;59284;31.390;34.904;2023-01-23T12:48:38;95225.97;;;36.37;100.00
70745;BME280;59284;31.390;34.904;2023-01-23T12:51:28;95232.00;;;34.11;100.00
70745;BME280;59284;31.390;34.904;2023-01-23T12:54:15;95226.78;;;33.62;100.00
70745;BME280;59284;31.390;34.904;2023-01-23T12:56:43;95225.03;;;34.76;100.00
70745;BME280;59284;31.390;34.904;2023-01-23T12:59:40;95233.94;;;34.48;100.00
70745;BME280;59284;31.390;34.904;2023-01-23T13:02:43;95221.59;;;32.46;100.00
70745;BME280;59284;31.390;34.904;2023-01-23T13:05:36;95234.56;;;33.44;100.00
70745;BME280;59284;31.390;34.904;2023-01-23T13:13:54;95243.31;;;28.44;100.00
70745;BME280;59284;31.390;34.904;2023-01-23T13:16:28;95241.72;;;28.53;100.00
70745;BME280;59284;31.390;34.904;2023-01-23T13:19:00;95244.91;;;27.12;100.00
70745;BME280;59284;31.390;34.904;2023-01-23T13:22:15;95242.03;;;29.55;100.00
70745;BME280;59284;31.390;34.904;2023-01-23T13:25:13;95229.16;;;32.15;100.00
70745;BME280;59284;31.390;34.904;2023-01-23T13:32:58;95228.53;;;32.27;100.00
70745;BME280;59284;31.390;34.904;2023-01-23T13:46:54;95253.47;;;29.93;100.00
70745;BME280;59284;31.390;34.904;2023-01-23T13:49:47;95239.41;;;34.07;100.00
70745;BME280;59284;31.390;34.904;2023-01-23T13:52:31;95256.03;;;29.66;100.00
70745;BME280;59284;31.390;34.904;2023-01-23T13:55:25;95251.13;;;31.51;100.00
70745;BME280;59284;31.390;34.904;2023-01-23T13:58:21;95258.47;;;29.53;100.00
70745;BME280;59284;31.390;34.904;2023-01-23T14:01:00;95254.28;;;27.80;100.00
70745;BME280;59284;31.390;34.904;2023-01-23T14:03:54;95261.75;;;30.02;100.00
70745;BME280;59284;31.390;34.904;2023-01-23T14:06:40;95252.31;;;29.19;100.00
70745;BME280;59284;31.390;34.904;2023-01-23T14:09:27;95263.75;;;29.16;100.00
70745;BME280;59284;31.390;34.904;2023-01-23T14:12:02;95270.16;;;28.12;100.00
70745;BME280;59284;31.390;34.904;2023-01-23T14:14:34;95282.97;;;26.88;100.00
70745;BME280;59284;31.390;34.904;2023-01-23T14:17:19;95280.19;;;27.80;100.00
70745;BME280;59284;31.390;34.904;2023-01-23T14:22:20;95284.47;;;27.07;100.00
70745;BME280;59284;31.390;34.904;2023-01-23T14:24:49;95283.31;;;27.47;100.00
70745;BME280;59284;31.390;34.904;2023-01-23T14:27:30;95289.78;;;26.96;100.00